Time;durP1;ratioP1;P1;durP2;ratioP2;P2;SDS_P1;SDS_P2;PMS_P1;PMS_P2;Temp;Humidity;BMP_temperature;BMP_pressure;BME280_temperature;BME280_humidity;BME280_pressure;Samples;Min_cycle;Max_cycle;Signal;HPM_P1;HPM_P2
2023/12/15 00:01:13;;;;;;;8.38;4.60;;;;;;;14.03;51.03;102537.44;5082177;28;20045;-61
2023/12/15 00:03:40;;;;;;;10.13;4.30;;;;;;;14.04;50.58;102539.16;5083520;28;20055;-61
2023/12/15 00:06:06;;;;;;;10.20;3.72;;;;;;;14.04;52.19;102543.69;5081241;28;20037;-61
2023/12/15 00:08:31;;;;;;;15.75;4.35;;;;;;;14.02;51.50;102538.41;5055152;28;20033;-61
2023/12/15 00:10:57;;;;;;;9.77;4.45;;;;;;;14.01;51.37;102550.16;5052626;28;20574;-61
2023/12/15 00:13:22;;;;;;;13.38;4.28;;;;;;;13.97;52.03;102552.19;5034988;28;20033;-61
2023/12/15 00:15:47;;;;;;;11.55;3.97;;;;;;;13.95;50.63;102553.28;5051795;28;20373;-61
2023/12/15 00:18:13;;;;;;;7.82;4.05;;;;;;;13.94;51.07;102547.03;5070620;28;20056;-61
2023/12/15 00:20:38;;;;;;;8.35;4.07;;;;;;;13.95;52.08;102543.38;5072674;28;20052;-61
2023/12/15 00:23:03;;;;;;;7.90;3.78;;;;;;;13.95;51.03;102542.50;5056360;28;20071;-61
2023/12/15 00:25:29;;;;;;;9.10;4.38;;;;;;;13.99;51.03;102544.00;5071718;28;20068;-61
2023/12/15 00:27:54;;;;;;;12.70;3.97;;;;;;;13.99;50.50;102549.38;5071919;28;20392;-61
2023/12/15 00:30:20;;;;;;;9.18;3.70;;;;;;;13.98;51.47;102555.75;5071855;28;20074;-61
2023/12/15 00:32:45;;;;;;;12.73;5.03;;;;;;;13.96;51.46;102549.59;5071660;28;20426;-61
2023/12/15 00:35:10;;;;;;;6.75;3.70;;;;;;;13.96;51.11;102555.00;5055751;28;20028;-61
2023/12/15 00:37:36;;;;;;;7.10;3.85;;;;;;;13.96;51.80;102558.56;5055019;28;20037;-61
2023/12/15 00:40:01;;;;;;;9.13;3.40;;;;;;;13.96;52.32;102565.75;5053667;28;20029;-61
2023/12/15 00:42:27;;;;;;;12.73;3.83;;;;;;;13.96;50.68;102560.38;5074914;28;20032;-61
2023/12/15 00:44:54;;;;;;;5.68;3.78;;;;;;;13.96;51.96;102565.75;5076175;28;20035;-62
2023/12/15 00:47:19;;;;;;;7.03;3.40;;;;;;;13.98;51.33;102574.63;5074923;28;20036;-61
2023/12/15 00:49:45;;;;;;;9.30;3.75;;;;;;;13.99;52.42;102570.94;5074858;28;20047;-61
2023/12/15 00:52:10;;;;;;;11.07;3.90;;;;;;;13.98;52.09;102575.50;5074925;28;20035;-61
2023/12/15 00:54:35;;;;;;;6.70;3.85;;;;;;;13.99;52.20;102576.31;5074721;28;20032;-62
2023/12/15 00:57:01;;;;;;;10.05;3.63;;;;;;;14.02;52.30;102589.59;5075881;28;20107;-61
2023/12/15 00:59:26;;;;;;;6.82;3.03;;;;;;;14.02;52.15;102576.13;5075982;28;20043;-61
2023/12/15 01:01:52;;;;;;;6.90;3.70;;;;;;;14.00;51.89;102578.06;5074450;28;20025;-62
2023/12/15 01:04:17;;;;;;;5.68;3.33;;;;;;;13.97;51.49;102572.88;5074481;28;20052;-61
2023/12/15 01:06:43;;;;;;;15.00;3.75;;;;;;;13.89;50.99;102568.06;5074621;28;20527;-61
2023/12/15 01:09:08;;;;;;;6.38;3.28;;;;;;;13.92;50.71;102585.81;5075736;28;20033;-61
2023/12/15 01:11:34;;;;;;;10.43;3.88;;;;;;;13.91;51.40;102589.47;5074615;28;20035;-61
2023/12/15 01:13:59;;;;;;;12.27;4.93;;;;;;;13.89;51.69;102596.81;5057687;28;20476;-62
2023/12/15 01:16:25;;;;;;;9.60;4.40;;;;;;;13.90;51.97;102585.91;5057324;28;20056;-61
2023/12/15 01:18:50;;;;;;;9.45;4.25;;;;;;;13.90;51.93;102588.63;5057556;28;20036;-61
2023/12/15 01:21:16;;;;;;;6.63;3.63;;;;;;;13.92;52.09;102592.09;5074158;28;20029;-61
2023/12/15 01:23:41;;;;;;;8.85;4.38;;;;;;;13.94;52.45;102594.66;5074180;28;20036;-61
2023/12/15 01:26:07;;;;;;;10.10;4.10;;;;;;;13.94;51.00;102597.34;5074187;28;20033;-61
2023/12/15 01:28:32;;;;;;;7.07;4.05;;;;;;;13.94;52.75;102598.22;5074970;28;20025;-61
2023/12/15 01:31:01;;;;;;;7.25;4.22;;;;;;;13.93;52.75;102598.34;5057582;28;20090;-62
2023/12/15 01:33:27;;;;;;;7.95;4.18;;;;;;;13.95;50.97;102596.41;5075336;28;20056;-62
2023/12/15 01:35:52;;;;;;;7.03;4.15;;;;;;;13.97;52.79;102605.22;5056914;28;20029;-61
2023/12/15 01:38:18;;;;;;;7.13;4.22;;;;;;;13.97;52.24;102610.59;5073764;28;20039;-61
2023/12/15 01:40:43;;;;;;;9.73;4.15;;;;;;;13.99;52.14;102614.06;5057228;28;20056;-61
2023/12/15 01:43:08;;;;;;;10.05;5.63;;;;;;;13.97;52.80;102616.00;5074990;28;20036;-61
2023/12/15 01:45:34;;;;;;;7.32;5.00;;;;;;;13.97;51.54;102624.94;5073626;28;20060;-61
2023/12/15 01:47:59;;;;;;;8.55;4.88;;;;;;;13.95;51.89;102623.34;5057057;28;20573;-61
2023/12/15 01:50:25;;;;;;;8.30;5.53;;;;;;;13.97;51.76;102626.78;5073691;28;20043;-61
2023/12/15 01:52:50;;;;;;;7.95;5.15;;;;;;;13.97;52.58;102622.25;5074722;28;20436;-61
2023/12/15 01:55:16;;;;;;;15.25;5.50;;;;;;;13.95;51.98;102610.72;5056784;28;20090;-62
2023/12/15 01:57:42;;;;;;;7.15;4.60;;;;;;;14.00;52.42;102616.66;5074921;28;20036;-62
2023/12/15 02:00:08;;;;;;;11.63;4.88;;;;;;;13.98;52.42;102617.72;5056801;28;20514;-61
2023/12/15 02:02:34;;;;;;;8.60;4.93;;;;;;;14.01;51.89;102628.31;5074867;28;20041;-61
2023/12/15 02:05:00;;;;;;;8.55;4.85;;;;;;;13.98;52.30;102628.50;5073532;28;20125;-61
2023/12/15 02:07:25;;;;;;;14.52;4.97;;;;;;;13.99;52.33;102630.22;5073353;28;20033;-61
2023/12/15 02:09:51;;;;;;;7.35;4.55;;;;;;;14.02;52.83;102638.97;5073290;28;20039;-60
2023/12/15 02:12:16;;;;;;;10.73;4.72;;;;;;;14.02;51.97;102632.69;5072963;28;20029;-61
2023/12/15 02:14:43;;;;;;;5.93;4.13;;;;;;;14.05;52.26;102640.56;5074318;28;20082;-61
2023/12/15 02:17:08;;;;;;;11.27;3.63;;;;;;;14.03;51.63;102642.53;5073162;28;20399;-62
2023/12/15 02:19:34;;;;;;;7.45;5.03;;;;;;;14.01;51.87;102641.78;5056053;28;20029;-61
2023/12/15 02:21:59;;;;;;;9.05;4.20;;;;;;;14.03;53.03;102631.75;5074292;28;20086;-60
2023/12/15 02:24:25;;;;;;;10.40;4.90;;;;;;;14.02;52.78;102646.16;5072960;28;20446;-61
2023/12/15 02:26:50;;;;;;;7.15;4.20;;;;;;;14.04;53.36;102655.03;5072913;28;20091;-61
2023/12/15 02:29:15;;;;;;;7.95;4.65;;;;;;;14.05;52.45;102663.94;5073358;28;20029;-61
2023/12/15 02:31:41;;;;;;;9.48;3.72;;;;;;;14.04;53.12;102655.03;5074219;28;20039;-62
2023/12/15 02:34:07;;;;;;;7.93;4.47;;;;;;;14.07;53.18;102662.03;5074031;28;20079;-61
2023/12/15 02:36:33;;;;;;;7.03;3.47;;;;;;;14.06;51.96;102658.47;5073356;28;20082;-61
2023/12/15 02:38:58;;;;;;;8.35;4.13;;;;;;;14.05;51.98;102651.34;5056291;28;20032;-61
2023/12/15 02:41:24;;;;;;;12.20;4.35;;;;;;;14.06;53.34;102652.22;5055066;28;20400;-61
2023/12/15 02:43:49;;;;;;;11.18;4.40;;;;;;;14.01;52.25;102639.91;5074444;28;20510;-61
2023/12/15 02:46:15;;;;;;;10.32;4.82;;;;;;;14.04;52.50;102641.56;5072094;28;20021;-61
2023/12/15 02:48:40;;;;;;;9.40;4.55;;;;;;;14.05;52.16;102642.41;5072292;28;20029;-61
2023/12/15 02:51:06;;;;;;;8.77;4.70;;;;;;;14.06;53.12;102644.13;5072641;28;20051;-61
2023/12/15 02:53:31;;;;;;;6.22;4.85;;;;;;;14.04;52.43;102649.66;5072533;28;20044;-62
2023/12/15 02:55:57;;;;;;;10.13;4.50;;;;;;;14.05;52.57;102647.78;5055461;28;20067;-62
2023/12/15 02:58:22;;;;;;;7.63;4.60;;;;;;;14.05;52.20;102650.47;5072300;28;20113;-61
2023/12/15 03:00:47;;;;;;;10.60;4.90;;;;;;;14.01;52.54;102660.63;5071803;28;20500;-61
2023/12/15 03:03:13;;;;;;;9.32;4.15;;;;;;;14.00;52.09;102673.25;5073495;28;20488;-61
2023/12/15 03:05:38;;;;;;;8.75;4.93;;;;;;;14.02;52.19;102679.38;5073519;28;20024;-61
2023/12/15 03:08:04;;;;;;;8.85;5.15;;;;;;;14.04;52.41;102681.09;5073393;28;20033;-60
2023/12/15 03:10:29;;;;;;;10.98;5.07;;;;;;;14.06;52.55;102684.56;5072001;28;20039;-61
2023/12/15 03:12:55;;;;;;;10.77;4.60;;;;;;;14.06;52.43;102688.13;5072217;28;20081;-62
2023/12/15 03:15:20;;;;;;;7.10;4.20;;;;;;;14.08;52.98;102688.88;5072703;28;20112;-61
2023/12/15 03:17:45;;;;;;;10.73;5.90;;;;;;;14.11;52.69;102685.97;5072595;28;20518;-61
2023/12/15 03:20:11;;;;;;;7.55;4.25;;;;;;;14.13;52.34;102689.41;5073109;28;20028;-62
2023/12/15 03:22:37;;;;;;;15.13;5.80;;;;;;;14.12;52.00;102689.53;5071512;28;20043;-61
2023/12/15 03:25:04;;;;;;;7.88;3.97;;;;;;;14.15;52.85;102700.97;5072047;28;20036;-62
2023/12/15 03:27:30;;;;;;;9.35;4.43;;;;;;;14.15;52.49;102697.41;5073293;28;20111;-61
2023/12/15 03:29:55;;;;;;;7.32;4.50;;;;;;;14.16;53.29;102713.44;5073071;28;20111;-63
2023/12/15 03:32:21;;;;;;;9.90;4.50;;;;;;;14.17;53.26;102709.78;5071820;28;20033;-61
2023/12/15 03:34:46;;;;;;;9.10;4.30;;;;;;;14.13;53.50;102713.66;5054646;28;20028;-61
2023/12/15 03:37:11;;;;;;;14.93;5.25;;;;;;;14.14;53.39;102710.00;5071848;28;20047;-61
2023/12/15 03:39:37;;;;;;;10.55;4.68;;;;;;;14.17;52.39;102715.19;5071801;28;20476;-61
2023/12/15 03:42:06;;;;;;;8.98;4.47;;;;;;;14.14;52.78;102712.69;5072961;28;20475;-62
2023/12/15 03:44:32;;;;;;;9.70;5.10;;;;;;;14.13;52.89;102724.44;5072005;28;20500;-61
2023/12/15 03:46:58;;;;;;;9.00;5.07;;;;;;;14.17;53.71;102722.41;5073141;28;20032;-61
2023/12/15 03:49:23;;;;;;;10.38;5.28;;;;;;;14.18;52.43;102722.28;5071829;28;20051;-61
2023/12/15 03:51:48;;;;;;;8.07;4.50;;;;;;;14.18;52.88;102722.28;5054841;28;20028;-61
2023/12/15 03:54:14;;;;;;;9.68;4.85;;;;;;;14.19;53.28;102742.88;5072936;28;20056;-61
2023/12/15 03:56:39;;;;;;;11.68;4.82;;;;;;;14.22;53.88;102745.38;5071161;28;20055;-61
2023/12/15 03:59:05;;;;;;;12.55;5.57;;;;;;;14.24;52.59;102754.22;5071550;28;20032;-61
2023/12/15 04:01:31;;;;;;;9.23;4.97;;;;;;;14.24;53.01;102748.81;5070772;28;20032;-61
2023/12/15 04:03:57;;;;;;;11.52;4.97;;;;;;;14.23;53.37;102757.91;5062535;28;20060;-61
2023/12/15 04:06:22;;;;;;;12.07;5.82;;;;;;;14.23;53.45;102760.59;5051628;28;20032;-61
2023/12/15 04:08:48;;;;;;;11.45;4.93;;;;;;;14.22;53.31;102764.25;5052422;28;20043;-61
2023/12/15 04:11:16;;;;;;;13.10;6.32;;;;;;;14.24;52.47;102770.38;5036928;28;20029;-62
2023/12/15 04:13:42;;;;;;;9.25;4.72;;;;;;;14.27;52.72;102774.69;5055668;28;20080;-61
2023/12/15 04:16:09;;;;;;;23.42;5.95;;;;;;;14.26;52.73;102775.69;5071227;28;20503;-61
2023/12/15 04:18:34;;;;;;;10.13;5.82;;;;;;;14.29;52.84;102779.00;5051934;28;20037;-61
2023/12/15 04:21:03;;;;;;;14.88;6.28;;;;;;;14.32;52.94;102783.41;5068154;28;20404;-61
2023/12/15 04:23:28;;;;;;;13.18;6.43;;;;;;;14.30;53.43;102769.97;5051372;28;20120;-61
2023/12/15 04:25:54;;;;;;;13.30;5.80;;;;;;;14.35;52.74;102778.63;5034751;28;20081;-62
2023/12/15 04:28:19;;;;;;;11.25;5.75;;;;;;;14.33;53.57;102772.50;5052591;28;20025;-61
2023/12/15 04:30:44;;;;;;;14.95;6.38;;;;;;;14.32;54.09;102767.22;5051602;28;20428;-61
2023/12/15 04:33:10;;;;;;;12.95;6.53;;;;;;;14.37;52.48;102774.03;5051203;28;20136;-61
2023/12/15 04:35:35;;;;;;;11.88;6.65;;;;;;;14.38;52.47;102766.75;5052471;28;20057;-61
2023/12/15 04:38:00;;;;;;;10.88;6.15;;;;;;;14.38;53.73;102770.34;5051196;28;20029;-61
2023/12/15 04:40:26;;;;;;;20.17;6.95;;;;;;;14.40;54.00;102779.19;5051113;28;20037;-62
2023/12/15 04:42:51;;;;;;;11.45;6.00;;;;;;;14.38;52.98;102773.03;5051072;28;20036;-62
2023/12/15 04:45:17;;;;;;;11.82;7.00;;;;;;;14.42;52.82;102797.94;5052248;28;20029;-62
2023/12/15 04:47:42;;;;;;;17.13;6.25;;;;;;;14.41;52.54;102801.59;5050971;28;20029;-61
2023/12/15 04:50:08;;;;;;;17.45;7.47;;;;;;;14.42;53.73;102808.75;5050929;28;20036;-62
2023/12/15 04:52:33;;;;;;;18.20;6.95;;;;;;;14.43;53.82;102805.09;5052225;28;20493;-62
2023/12/15 04:54:58;;;;;;;17.15;7.47;;;;;;;14.43;53.41;102813.19;5050742;28;20033;-62
2023/12/15 04:57:24;;;;;;;19.67;7.78;;;;;;;14.41;53.63;102805.19;5067422;28;20033;-61
2023/12/15 04:59:49;;;;;;;14.30;7.35;;;;;;;14.40;52.92;102806.16;5050879;28;20036;-62
2023/12/15 05:02:14;;;;;;;17.58;7.85;;;;;;;14.43;53.20;102805.91;5050876;28;20116;-61
2023/12/15 05:04:40;;;;;;;15.77;6.75;;;;;;;14.43;52.73;102799.69;5053850;28;20079;-61
2023/12/15 05:07:05;;;;;;;18.20;8.68;;;;;;;14.46;53.39;102808.41;5064109;28;20115;-61
2023/12/15 05:09:30;;;;;;;13.90;7.53;;;;;;;14.46;52.69;102813.81;5054520;28;20025;-61
2023/12/15 05:11:56;;;;;;;18.02;7.50;;;;;;;14.46;52.54;102811.09;5054567;28;20025;-63
2023/12/15 05:14:21;;;;;;;18.75;8.48;;;;;;;14.45;52.97;102811.22;5037703;28;20108;-62
2023/12/15 05:16:46;;;;;;;17.73;7.78;;;;;;;14.44;52.66;102804.97;5070679;28;20492;-61
2023/12/15 05:19:12;;;;;;;19.05;7.30;;;;;;;14.45;53.21;102812.09;5037650;28;20404;-61
2023/12/15 05:21:37;;;;;;;20.95;7.72;;;;;;;14.51;52.69;102808.13;5055519;28;20473;-62
2023/12/15 05:24:03;;;;;;;17.75;8.02;;;;;;;14.49;53.36;102797.41;5061432;28;20036;-61
2023/12/15 05:26:28;;;;;;;22.00;7.85;;;;;;;14.51;53.09;102814.38;5055502;28;20028;-61
2023/12/15 05:28:54;;;;;;;18.08;8.30;;;;;;;14.49;53.45;102819.00;5054154;28;20404;-62
2023/12/15 05:31:19;;;;;;;16.20;7.85;;;;;;;14.52;53.53;102834.09;5054032;28;20037;-62
2023/12/15 05:33:44;;;;;;;20.63;7.57;;;;;;;14.49;53.31;102823.50;5070641;28;20037;-61
2023/12/15 05:36:19;;;;;;;18.65;7.93;;;;;;;14.52;53.03;102834.09;5055244;28;20029;-61
2023/12/15 05:38:48;;;;;;;21.00;8.10;;;;;;;14.53;53.33;102835.84;5053862;28;20047;-61
2023/12/15 05:41:14;;;;;;;15.38;7.50;;;;;;;14.51;54.10;102827.84;5053635;28;20040;-62
2023/12/15 05:43:40;;;;;;;17.50;7.80;;;;;;;14.56;52.53;102839.19;5054929;28;20017;-61
2023/12/15 05:46:05;;;;;;;20.02;7.68;;;;;;;14.58;53.13;102836.38;5053750;28;20040;-62
2023/12/15 05:48:31;;;;;;;21.48;8.35;;;;;;;14.58;53.80;102839.06;5055122;28;20069;-61
2023/12/15 05:50:57;;;;;;;14.18;7.45;;;;;;;14.58;53.72;102837.25;5054900;28;20431;-61
2023/12/15 05:53:22;;;;;;;23.42;8.73;;;;;;;14.61;53.56;102838.00;5037117;28;20365;-61
2023/12/15 05:55:47;;;;;;;16.95;7.53;;;;;;;14.62;53.70;102842.44;5036596;28;20041;-61
2023/12/15 05:58:13;;;;;;;24.58;8.80;;;;;;;14.64;53.68;102848.56;5053637;28;20029;-61
2023/12/15 06:00:38;;;;;;;18.85;7.78;;;;;;;14.62;53.55;102846.00;5070251;28;20111;-61
2023/12/15 06:03:04;;;;;;;23.65;7.80;;;;;;;14.66;53.05;102857.41;5036921;28;20163;-62
2023/12/15 06:05:33;;;;;;;18.58;7.28;;;;;;;14.66;53.92;102860.09;5054616;28;20472;-62
2023/12/15 06:07:59;;;;;;;16.48;8.38;;;;;;;14.67;54.35;102864.53;5069437;28;20025;-61
2023/12/15 06:10:24;;;;;;;15.45;7.15;;;;;;;14.69;54.39;102863.47;5052432;28;20031;-61
2023/12/15 06:12:50;;;;;;;21.10;7.78;;;;;;;14.70;53.43;102865.22;5053888;28;20098;-61
2023/12/15 06:15:15;;;;;;;20.58;8.27;;;;;;;14.71;53.68;102864.25;5053725;28;20029;-62
2023/12/15 06:17:41;;;;;;;16.63;7.60;;;;;;;14.72;54.06;102878.56;5035959;28;20033;-61
2023/12/15 06:20:07;;;;;;;19.13;7.93;;;;;;;14.72;53.88;102887.53;5054505;28;20071;-61
2023/12/15 06:22:32;;;;;;;18.95;9.35;;;;;;;14.72;52.66;102879.44;5054397;28;20025;-62
2023/12/15 06:24:57;;;;;;;22.38;8.10;;;;;;;14.73;53.08;102877.63;5054307;28;20396;-61
2023/12/15 06:27:23;;;;;;;20.50;8.85;;;;;;;14.69;52.98;102870.69;5053022;28;20052;-62
2023/12/15 06:29:48;;;;;;;18.95;7.78;;;;;;;14.73;54.00;102875.78;5054103;28;20048;-61
2023/12/15 06:32:15;;;;;;;19.17;8.80;;;;;;;14.70;53.14;102883.22;5069751;28;20021;-60
2023/12/15 06:34:43;;;;;;;22.05;8.57;;;;;;;14.73;52.84;102883.00;5036655;28;20055;-63
2023/12/15 06:37:08;;;;;;;22.25;8.00;;;;;;;14.68;53.01;102882.47;5069609;28;20041;-62
2023/12/15 06:39:33;;;;;;;20.77;9.15;;;;;;;14.62;52.95;102880.19;5052982;28;20035;-61
2023/12/15 06:41:59;;;;;;;19.20;9.13;;;;;;;14.68;52.81;102893.25;5053010;28;20024;-63
2023/12/15 06:44:25;;;;;;;17.15;9.98;;;;;;;14.67;53.33;102886.13;5069737;28;20120;-61
2023/12/15 06:46:51;;;;;;;19.92;7.90;;;;;;;14.69;53.69;102876.97;5052627;28;20457;-63
2023/12/15 06:49:18;;;;;;;18.55;9.25;;;;;;;14.69;54.50;102878.78;5053810;28;20079;-63
2023/12/15 06:51:44;;;;;;;22.10;9.93;;;;;;;14.70;53.62;102880.53;5036484;28;20362;-63
2023/12/15 06:54:09;;;;;;;27.40;9.43;;;;;;;14.67;54.33;102891.53;5051261;28;20041;-63
2023/12/15 06:56:37;;;;;;;19.63;9.40;;;;;;;14.65;53.93;102899.72;5053530;28;20040;-63
2023/12/15 06:59:03;;;;;;;22.98;9.15;;;;;;;14.65;53.86;102904.25;5053394;28;20087;-63
2023/12/15 07:01:28;;;;;;;22.52;9.10;;;;;;;14.69;52.91;102917.41;5048061;28;20115;-62
2023/12/15 07:03:54;;;;;;;25.17;10.38;;;;;;;14.69;53.98;102921.94;5064997;28;20094;-63
2023/12/15 07:06:20;;;;;;;18.45;8.68;;;;;;;14.72;54.31;102925.31;5053845;28;20428;-63
2023/12/15 07:08:50;;;;;;;22.80;9.45;;;;;;;14.73;53.39;102923.47;5053369;28;20041;-63
2023/12/15 07:11:15;;;;;;;24.98;9.82;;;;;;;14.76;53.23;102929.53;5053464;28;20033;-62
2023/12/15 07:13:41;;;;;;;26.67;10.65;;;;;;;14.79;52.86;102932.03;5068712;28;20031;-63
2023/12/15 07:16:07;;;;;;;27.08;8.80;;;;;;;14.81;52.86;102927.38;5051848;28;20555;-63
2023/12/15 07:18:33;;;;;;;22.92;9.85;;;;;;;14.82;52.99;102937.22;5053725;28;20112;-63
2023/12/15 07:20:58;;;;;;;28.65;10.70;;;;;;;14.82;53.27;102937.22;5053784;28;20061;-63
2023/12/15 07:23:23;;;;;;;27.88;10.07;;;;;;;14.84;54.53;102934.41;5053269;28;20029;-63
2023/12/15 07:25:49;;;;;;;27.70;10.32;;;;;;;14.87;54.34;102939.59;5051985;28;20017;-63
2023/12/15 07:28:14;;;;;;;26.02;9.45;;;;;;;14.89;54.59;102952.00;5053866;28;20029;-63
2023/12/15 07:30:39;;;;;;;22.65;9.57;;;;;;;14.91;54.49;102970.78;5051995;28;20036;-63
2023/12/15 07:33:05;;;;;;;22.30;8.95;;;;;;;14.89;53.96;102960.09;5053560;28;20119;-63
2023/12/15 07:35:31;;;;;;;23.95;9.98;;;;;;;14.94;52.82;102970.56;5051945;28;20036;-63
2023/12/15 07:37:57;;;;;;;22.67;9.98;;;;;;;14.95;53.47;102970.47;5052689;28;20116;-63
2023/12/15 07:40:23;;;;;;;23.85;9.60;;;;;;;14.95;53.60;102983.09;5035297;28;20056;-62
2023/12/15 07:42:48;;;;;;;20.58;9.45;;;;;;;14.96;53.80;102984.84;5052864;28;20489;-63
2023/12/15 07:45:13;;;;;;;23.42;10.35;;;;;;;14.97;53.35;102986.56;5035068;28;20041;-63
2023/12/15 07:47:39;;;;;;;32.90;9.95;;;;;;;15.01;53.83;102988.09;5052819;28;20082;-65
2023/12/15 07:50:05;;;;;;;30.25;11.55;;;;;;;15.01;52.98;102996.19;5052109;28;20102;-63
2023/12/15 07:52:30;;;;;;;24.40;9.18;;;;;;;15.00;53.53;102998.00;5052031;28;20111;-63
2023/12/15 07:54:55;;;;;;;28.17;10.25;;;;;;;15.01;53.03;103001.59;5035361;28;20025;-62
2023/12/15 07:57:21;;;;;;;26.73;10.05;;;;;;;15.04;52.99;102998.69;5051385;28;20445;-63
2023/12/15 07:59:46;;;;;;;30.08;10.95;;;;;;;15.06;53.77;102994.03;5051700;28;20036;-63
2023/12/15 08:02:12;;;;;;;30.33;11.75;;;;;;;15.07;52.69;102998.47;5051638;28;20037;-63
2023/12/15 08:04:37;;;;;;;27.42;10.80;;;;;;;15.06;53.75;102996.72;5052648;28;20036;-63
2023/12/15 08:07:03;;;;;;;25.65;10.68;;;;;;;15.08;54.05;103005.56;5052820;28;20025;-63
2023/12/15 08:09:29;;;;;;;24.95;9.93;;;;;;;15.08;53.74;103000.19;5052839;28;20519;-63
2023/12/15 08:11:54;;;;;;;26.52;10.45;;;;;;;15.08;54.05;103000.19;5052987;28;20392;-63
2023/12/15 08:14:19;;;;;;;26.67;10.50;;;;;;;15.15;53.14;103012.31;5067953;28;20056;-63
2023/12/15 08:16:45;;;;;;;33.00;11.00;;;;;;;15.16;52.55;103012.19;5052284;28;20462;-63
2023/12/15 08:19:10;;;;;;;22.58;10.13;;;;;;;15.16;53.53;103014.00;5051354;28;20045;-63
2023/12/15 08:21:36;;;;;;;25.92;10.38;;;;;;;15.22;52.86;103034.31;5051284;28;20523;-63
2023/12/15 08:24:01;;;;;;;24.13;11.60;;;;;;;15.24;52.69;103022.47;5052323;28;20063;-63
2023/12/15 08:26:27;;;;;;;27.00;11.68;;;;;;;15.26;53.53;103031.34;5051371;28;20083;-63
2023/12/15 08:28:53;;;;;;;29.38;10.90;;;;;;;15.28;53.47;103033.91;5052529;28;20028;-63
2023/12/15 08:31:23;;;;;;;32.95;12.13;;;;;;;15.27;54.06;103034.91;5051240;28;20415;-63
2023/12/15 08:33:49;;;;;;;25.25;10.38;;;;;;;15.26;53.80;103031.34;5067980;28;20037;-63
2023/12/15 08:36:14;;;;;;;30.13;11.60;;;;;;;15.28;54.03;103040.19;5051015;28;20036;-63
2023/12/15 08:38:39;;;;;;;30.45;10.90;;;;;;;15.31;53.33;103048.06;5052584;28;20120;-63
2023/12/15 08:41:06;;;;;;;28.05;12.40;;;;;;;15.33;52.70;103053.34;5054896;28;20515;-63
2023/12/15 08:43:32;;;;;;;35.22;12.68;;;;;;;15.33;53.37;103064.16;5056339;28;20037;-63
2023/12/15 08:45:58;;;;;;;30.42;11.10;;;;;;;15.32;54.00;103063.31;5038181;28;20488;-63
2023/12/15 08:48:23;;;;;;;32.38;10.70;;;;;;;15.32;53.08;103068.72;5054726;28;20162;-63
2023/12/15 08:50:49;;;;;;;30.40;11.13;;;;;;;15.36;53.11;103075.63;5054661;28;20496;-63
2023/12/15 08:53:16;;;;;;;31.08;11.55;;;;;;;15.36;54.05;103075.63;5055842;28;20040;-63
2023/12/15 08:55:42;;;;;;;32.72;11.73;;;;;;;15.39;53.88;103078.13;5054743;28;20037;-63
2023/12/15 08:58:07;;;;;;;31.60;11.55;;;;;;;15.42;54.40;103075.22;5054612;28;20033;-63
2023/12/15 09:00:32;;;;;;;31.38;11.75;;;;;;;15.45;53.89;103091.22;5054608;28;20045;-64
2023/12/15 09:02:58;;;;;;;29.10;11.68;;;;;;;15.49;52.88;103097.31;5055876;28;20111;-64
2023/12/15 09:05:23;;;;;;;29.15;11.95;;;;;;;15.54;54.11;103098.72;5055635;28;20114;-64
2023/12/15 09:07:52;;;;;;;26.27;10.65;;;;;;;15.57;54.10;103105.75;5054520;28;20060;-63
2023/12/15 09:10:22;;;;;;;27.15;10.80;;;;;;;15.62;53.44;103115.25;5054323;28;20214;-63
2023/12/15 09:12:48;;;;;;;28.25;11.93;;;;;;;15.65;53.21;103125.88;5054607;28;20060;-63
2023/12/15 09:15:14;;;;;;;33.65;11.18;;;;;;;15.63;53.94;103122.38;5071045;28;20029;-63
2023/12/15 09:17:43;;;;;;;28.92;10.90;;;;;;;15.68;53.25;103128.34;5055633;28;20040;-63
2023/12/15 09:20:12;;;;;;;33.42;12.95;;;;;;;15.70;53.44;103131.81;5054202;28;20041;-63
2023/12/15 09:22:39;;;;;;;25.73;10.45;;;;;;;15.70;52.98;103134.50;5037519;28;20102;-63
2023/12/15 09:25:05;;;;;;;30.60;11.68;;;;;;;15.73;53.71;103139.72;5054167;28;20558;-63
2023/12/15 09:27:31;;;;;;;28.00;11.77;;;;;;;15.77;53.67;103139.50;5055555;28;20033;-63
2023/12/15 09:29:56;;;;;;;30.05;11.45;;;;;;;15.85;53.63;103137.13;5054131;28;20033;-63
2023/12/15 09:32:21;;;;;;;34.67;13.85;;;;;;;15.86;53.18;103139.69;5070581;28;20082;-63
2023/12/15 09:34:47;;;;;;;27.50;12.00;;;;;;;15.91;53.80;103137.56;5053791;28;20037;-63
2023/12/15 09:37:13;;;;;;;27.88;10.48;;;;;;;15.92;53.50;103144.69;5070527;28;20079;-63
2023/12/15 09:39:38;;;;;;;29.33;11.95;;;;;;;15.92;53.54;103138.41;5053673;28;20090;-63
2023/12/15 09:42:04;;;;;;;29.40;10.75;;;;;;;15.95;53.32;103143.59;5055319;28;20155;-63
2023/12/15 09:44:29;;;;;;;29.27;11.38;;;;;;;15.97;53.85;103152.50;5055279;28;20501;-63
2023/12/15 09:46:57;;;;;;;30.25;12.95;;;;;;;15.94;54.21;103147.31;5053933;28;20435;-63
2023/12/15 09:49:24;;;;;;;33.20;11.60;;;;;;;16.02;52.92;103162.00;5053604;28;20033;-63
2023/12/15 09:51:50;;;;;;;39.70;11.25;;;;;;;16.04;53.58;103164.59;5070325;28;20115;-63
2023/12/15 09:54:16;;;;;;;34.30;11.52;;;;;;;16.07;53.76;103158.97;5053822;28;20079;-63
2023/12/15 09:56:42;;;;;;;29.50;11.38;;;;;;;16.12;53.81;103168.50;5053216;28;20409;-63
2023/12/15 09:59:07;;;;;;;27.67;12.00;;;;;;;16.12;53.53;103160.38;5070002;28;20029;-63
2023/12/15 10:01:33;;;;;;;29.30;12.15;;;;;;;16.21;53.69;103181.38;5053345;28;20040;-63
2023/12/15 10:03:58;;;;;;;32.83;13.82;;;;;;;16.26;53.70;103178.34;5070061;28;20037;-63
2023/12/15 10:06:24;;;;;;;31.63;12.68;;;;;;;16.31;53.22;103185.16;5054638;28;20029;-63
2023/12/15 10:08:53;;;;;;;32.25;10.88;;;;;;;16.36;52.72;103182.09;5054721;28;20033;-62
2023/12/15 10:11:18;;;;;;;25.98;12.52;;;;;;;16.43;52.57;103196.94;5036462;28;20114;-63
2023/12/15 10:13:44;;;;;;;41.47;12.50;;;;;;;16.47;52.32;103206.56;5069762;28;20076;-68
2023/12/15 10:16:09;;;;;;;27.05;11.32;;;;;;;16.53;52.96;103207.97;5036106;28;20029;-63
2023/12/15 10:18:35;;;;;;;28.95;11.73;;;;;;;16.53;52.35;103208.88;5069748;28;20044;-63
2023/12/15 10:21:01;;;;;;;29.23;13.07;;;;;;;16.55;52.36;103198.81;5036397;28;20041;-63
2023/12/15 10:23:30;;;;;;;24.95;11.40;;;;;;;16.59;53.10;103204.84;5054363;28;20106;-63
2023/12/15 10:25:58;;;;;;;35.33;12.27;;;;;;;16.61;53.54;103198.34;5054318;28;20059;-63
2023/12/15 10:28:23;;;;;;;33.85;12.43;;;;;;;16.68;52.88;103204.19;5052961;28;20036;-63
2023/12/15 10:30:50;;;;;;;28.00;12.00;;;;;;;16.77;52.66;103215.25;5052817;28;20025;-63
2023/12/15 10:33:17;;;;;;;25.85;11.88;;;;;;;16.81;52.92;103214.03;5052976;28;20032;-63
2023/12/15 10:35:45;;;;;;;28.70;13.13;;;;;;;16.84;52.68;103205.69;5052651;28;20059;-63
2023/12/15 10:38:11;;;;;;;30.63;10.95;;;;;;;16.89;52.69;103214.34;5052759;28;20033;-63
2023/12/15 10:40:36;;;;;;;21.88;10.90;;;;;;;16.95;52.50;103212.16;5054043;28;20029;-63
2023/12/15 10:43:03;;;;;;;29.38;11.10;;;;;;;16.97;52.29;103223.75;5052548;28;20527;-63
2023/12/15 10:45:29;;;;;;;30.70;12.02;;;;;;;16.97;52.78;103218.34;5052683;28;20037;-63
2023/12/15 10:47:56;;;;;;;27.65;11.50;;;;;;;17.01;52.61;103220.69;5052529;28;20030;-63
2023/12/15 10:50:22;;;;;;;21.67;10.80;;;;;;;17.01;52.52;103222.53;5035919;28;20083;-63
2023/12/15 10:52:49;;;;;;;27.23;10.82;;;;;;;17.01;52.62;103233.38;5053725;28;20029;-63
2023/12/15 10:55:15;;;;;;;22.98;11.20;;;;;;;16.99;51.82;103243.47;5035696;28;20444;-63
2023/12/15 10:57:41;;;;;;;28.75;10.73;;;;;;;16.95;53.05;103242.81;5052328;28;20029;-64
2023/12/15 11:00:07;;;;;;;22.95;9.55;;;;;;;16.92;52.14;103244.91;5052492;28;20029;-63
2023/12/15 11:02:33;;;;;;;23.83;10.52;;;;;;;16.88;52.82;103255.94;5068355;28;20044;-63
2023/12/15 11:04:59;;;;;;;27.85;10.88;;;;;;;16.88;51.98;103265.91;5052585;28;20032;-63
2023/12/15 11:07:25;;;;;;;23.30;9.13;;;;;;;16.83;52.67;103268.06;5068919;28;20493;-63
2023/12/15 11:09:50;;;;;;;26.17;12.20;;;;;;;16.84;52.43;103276.06;5053397;28;20033;-63